Time;durP1;ratioP1;P1;durP2;ratioP2;P2;SDS_P1;SDS_P2;PMS_P1;PMS_P2;Temp;Humidity;BMP_temperature;BMP_pressure;BME280_temperature;BME280_humidity;BME280_pressure;Samples;Min_cycle;Max_cycle;Signal;HPM_P1;HPM_P2
2021/12/31 00:00:59;;;;;;;;;;;-1.70;99.90;;;;;;5071112;28;19912;-74
2021/12/31 00:03:24;;;;;;;;;;;-1.70;99.90;;;;;;5071493;28;20308;-74
2021/12/31 00:05:50;;;;;;;;;;;-1.60;99.90;;;;;;5053025;28;19904;-75
2021/12/31 00:08:15;;;;;;;;;;;-1.60;99.90;;;;;;5070950;28;19918;-74
2021/12/31 00:10:41;;;;;;;;;;;-1.70;99.90;;;;;;5071108;28;19905;-74
2021/12/31 00:13:06;;;;;;;;;;;-1.70;99.90;;;;;;5071577;28;19920;-74
2021/12/31 00:15:32;;;;;;;;;;;-1.70;99.90;;;;;;5052975;28;19904;-74
2021/12/31 00:17:58;;;;;;;;;;;-1.70;99.90;;;;;;5052997;28;19920;-74
2021/12/31 00:20:25;;;;;;;;;;;-1.30;99.90;;;;;;5070590;28;19912;-74
2021/12/31 00:25:22;;;;;;;;;;;-1.70;99.90;;;;;;5071074;28;20309;-74
2021/12/31 00:27:48;;;;;;;;;;;-1.80;99.90;;;;;;5052823;28;20026;-75
2021/12/31 00:30:14;;;;;;;;;;;-1.70;99.90;;;;;;5069755;28;19950;-75
2021/12/31 00:32:39;;;;;;;;;;;-1.70;99.90;;;;;;5070562;28;19923;-74
2021/12/31 00:35:05;;;;;;;;;;;-1.70;99.90;;;;;;5040978;28;19951;-74
2021/12/31 00:37:32;;;;;;;;;;;-1.70;99.90;;;;;;5032976;28;19913;-74
2021/12/31 00:39:58;;;;;;;;;;;-1.70;99.90;;;;;;5059909;28;19997;-74
2021/12/31 00:42:24;;;;;;;;;;;-1.60;99.90;;;;;;5052157;28;19978;-75
2021/12/31 00:44:49;;;;;;;;;;;-1.60;99.90;;;;;;5070232;28;19906;-75
2021/12/31 00:47:15;;;;;;;;;;;-1.60;99.90;;;;;;5070756;28;19978;-75
2021/12/31 00:49:41;;;;;;;;;;;-1.60;99.90;;;;;;5070186;28;19908;-74
2021/12/31 00:52:09;;;;;;;;;;;-1.70;99.90;;;;;;5070425;28;19916;-74
2021/12/31 00:54:35;;;;;;;;;;;-1.60;99.90;;;;;;5069756;28;20017;-73
2021/12/31 00:57:03;;;;;;;;;;;-1.60;99.90;;;;;;5069998;28;19916;-73
2021/12/31 00:59:31;;;;;;;;;;;-1.60;99.90;;;;;;5069533;28;19955;-73
2021/12/31 01:01:57;;;;;;;;;;;-1.60;99.90;;;;;;5070463;28;20000;-74
2021/12/31 01:04:23;;;;;;;;;;;-1.60;99.90;;;;;;5051801;28;19931;-74
2021/12/31 01:06:48;;;;;;;;;;;-1.60;99.90;;;;;;5051895;28;19995;-73
2021/12/31 01:09:14;;;;;;;;;;;-1.70;99.90;;;;;;5051307;28;19908;-73
2021/12/31 01:11:42;;;;;;;;;;;-1.60;99.90;;;;;;5051868;28;19916;-74
2021/12/31 01:14:18;;;;;;;;;;;-1.60;99.90;;;;;;5051268;28;20395;-74
2021/12/31 01:16:49;;;;;;;;;;;-1.60;99.90;;;;;;5070391;28;19905;-74
2021/12/31 01:21:41;;;;;;;;;;;-1.60;99.90;;;;;;5070109;28;19947;-74
2021/12/31 01:24:06;;;;;;;;;;;-1.60;99.90;;;;;;5068281;28;19912;-75
2021/12/31 01:26:33;;;;;;;;;;;-1.60;99.90;;;;;;5052167;28;19954;-74
2021/12/31 01:28:59;;;;;;;;;;;-1.60;99.90;;;;;;5069668;28;20034;-74
2021/12/31 01:31:24;;;;;;;;;;;-1.60;99.90;;;;;;5071328;28;20377;-74
2021/12/31 01:33:50;;;;;;;;;;;-1.60;99.90;;;;;;5073233;28;19912;-74
2021/12/31 01:36:16;;;;;;;;;;;-1.60;99.90;;;;;;5055829;28;19955;-74
2021/12/31 01:38:44;;;;;;;;;;;-1.60;99.90;;;;;;5072817;28;19955;-74
2021/12/31 01:41:10;;;;;;;;;;;-1.60;99.90;;;;;;5035340;28;20003;-74
2021/12/31 01:43:35;;;;;;;;;;;-1.60;99.90;;;;;;5052192;28;20054;-74
2021/12/31 01:46:10;;;;;;;;;;;-1.60;99.90;;;;;;5054260;28;20268;-74
2021/12/31 01:48:48;;;;;;;;;;;-1.60;99.90;;;;;;5055250;28;19923;-74
2021/12/31 01:51:13;;;;;;;;;;;-1.60;99.90;;;;;;5073528;28;20352;-74
2021/12/31 01:53:39;;;;;;;;;;;-1.60;99.90;;;;;;5073698;28;19923;-75
2021/12/31 01:56:05;;;;;;;;;;;-1.50;99.90;;;;;;5055368;28;20030;-75
2021/12/31 01:58:30;;;;;;;;;;;-1.50;99.90;;;;;;5055327;28;20028;-74
2021/12/31 02:00:58;;;;;;;;;;;-1.50;99.90;;;;;;5073463;28;20320;-73
2021/12/31 02:03:24;;;;;;;;;;;-1.50;99.90;;;;;;5073655;28;20415;-74
2021/12/31 02:05:50;;;;;;;;;;;-1.50;99.90;;;;;;5072957;28;19904;-74
2021/12/31 02:08:16;;;;;;;;;;;-1.50;99.90;;;;;;5073476;28;20407;-75
2021/12/31 02:10:42;;;;;;;;;;;-1.50;99.90;;;;;;5073330;28;19908;-75
2021/12/31 02:13:08;;;;;;;;;;;-1.50;99.90;;;;;;5073627;28;20289;-75
2021/12/31 02:15:34;;;;;;;;;;;-1.50;99.90;;;;;;5073038;28;19904;-75
2021/12/31 02:18:00;;;;;;;;;;;-1.50;99.90;;;;;;5073227;28;19923;-75
2021/12/31 02:20:43;;;;;;;;;;;-1.50;99.90;;;;;;5072408;28;19939;-74
2021/12/31 02:23:19;;;;;;;;;;;-1.40;99.90;;;;;;5073409;28;19947;-75
2021/12/31 02:25:45;;;;;;;;;;;-1.40;99.90;;;;;;5072432;28;20002;-75
2021/12/31 02:28:10;;;;;;;;;;;-1.40;99.90;;;;;;5055083;28;20008;-75
2021/12/31 02:30:36;;;;;;;;;;;-1.40;99.90;;;;;;5054616;28;19908;-75
2021/12/31 02:33:03;;;;;;;;;;;-1.40;99.90;;;;;;5073161;28;19928;-74
2021/12/31 02:35:29;;;;;;;;;;;-1.30;99.90;;;;;;5066514;28;20379;-74
2021/12/31 02:37:55;;;;;;;;;;;-1.30;99.90;;;;;;5054871;28;19960;-74
2021/12/31 02:40:22;;;;;;;;;;;-1.30;99.90;;;;;;5071930;28;19904;-74
2021/12/31 02:42:47;;;;;;;;;;;-1.30;99.90;;;;;;5072433;28;19994;-74
2021/12/31 02:45:14;;;;;;;;;;;-1.30;99.90;;;;;;5071847;28;20361;-74
2021/12/31 02:47:44;;;;;;;;;;;-1.30;99.90;;;;;;5072664;28;19912;-74
2021/12/31 02:50:12;;;;;;;;;;;-1.30;99.90;;;;;;5053984;28;19912;-74
2021/12/31 02:52:38;;;;;;;;;;;-1.30;99.90;;;;;;5054399;28;20222;-74
2021/12/31 02:55:04;;;;;;;;;;;-1.30;99.90;;;;;;5071590;28;20311;-75
2021/12/31 02:57:29;;;;;;;;;;;-1.20;99.90;;;;;;5072384;28;20347;-75
2021/12/31 02:59:55;;;;;;;;;;;-1.20;99.90;;;;;;5071574;28;19916;-75
2021/12/31 03:02:24;;;;;;;;;;;-1.30;99.90;;;;;;5072784;28;19935;-74
2021/12/31 03:04:53;;;;;;;;;;;-1.20;99.90;;;;;;5071793;28;20011;-74
2021/12/31 03:07:19;;;;;;;;;;;-1.20;99.90;;;;;;5054399;28;20083;-75
2021/12/31 03:09:47;;;;;;;;;;;-1.20;99.90;;;;;;5071792;28;20363;-75
2021/12/31 03:12:14;;;;;;;;;;;-1.20;99.90;;;;;;5072464;28;20310;-75
2021/12/31 03:14:40;;;;;;;;;;;-1.20;99.90;;;;;;5053426;28;19962;-76
2021/12/31 03:17:06;;;;;;;;;;;-1.10;99.90;;;;;;5072154;28;19912;-75
2021/12/31 03:19:32;;;;;;;;;;;-1.10;99.90;;;;;;5053531;28;20364;-76
2021/12/31 03:21:57;;;;;;;;;;;-1.10;99.90;;;;;;5072020;28;19935;-74
2021/12/31 03:24:23;;;;;;;;;;;-1.10;99.90;;;;;;5072107;28;19904;-74
2021/12/31 03:26:48;;;;;;;;;;;-1.10;99.90;;;;;;5071348;28;20390;-75
2021/12/31 03:29:14;;;;;;;;;;;-1.10;99.90;;;;;;5049076;28;20363;-75
2021/12/31 03:31:40;;;;;;;;;;;-1.00;99.90;;;;;;5051739;28;19978;-75
2021/12/31 03:34:05;;;;;;;;;;;-1.00;99.90;;;;;;5053665;28;19913;-75
2021/12/31 03:36:31;;;;;;;;;;;-1.10;99.90;;;;;;5053582;28;19946;-75
2021/12/31 03:38:56;;;;;;;;;;;-1.00;99.90;;;;;;5071326;28;19958;-75
2021/12/31 03:41:22;;;;;;;;;;;-1.00;99.90;;;;;;5071425;28;20373;-75
2021/12/31 03:43:47;;;;;;;;;;;-1.00;99.90;;;;;;5053501;28;19917;-75
2021/12/31 03:46:13;;;;;;;;;;;-1.00;99.90;;;;;;5071012;28;19911;-74
2021/12/31 03:48:39;;;;;;;;;;;-1.00;99.90;;;;;;5071337;28;20310;-75
2021/12/31 03:51:04;;;;;;;;;;;-1.00;99.90;;;;;;5070869;28;19911;-75
2021/12/31 03:53:30;;;;;;;;;;;-1.10;99.90;;;;;;5070617;28;19916;-74
2021/12/31 03:55:55;;;;;;;;;;;-1.00;99.90;;;;;;5070704;28;19956;-74
2021/12/31 03:58:21;;;;;;;;;;;-1.00;99.90;;;;;;5070685;28;19916;-74
2021/12/31 04:00:46;;;;;;;;;;;-1.00;99.90;;;;;;5052718;28;19995;-74
2021/12/31 04:03:12;;;;;;;;;;;-0.90;99.90;;;;;;5071403;28;20323;-74
2021/12/31 04:05:39;;;;;;;;;;;-0.90;99.90;;;;;;5036822;28;20349;-74
2021/12/31 04:08:05;;;;;;;;;;;-0.90;99.90;;;;;;5032839;28;19916;-73
2021/12/31 04:10:31;;;;;;;;;;;-0.80;99.90;;;;;;5065067;28;19966;-74
2021/12/31 04:12:57;;;;;;;;;;;-0.90;99.90;;;;;;5070852;28;20360;-74
2021/12/31 04:15:22;;;;;;;;;;;-0.80;99.90;;;;;;5070346;28;19986;-74
2021/12/31 04:17:48;;;;;;;;;;;-0.80;99.90;;;;;;5052632;28;19924;-74
2021/12/31 04:20:19;;;;;;;;;;;-0.80;99.90;;;;;;5070412;28;19904;-74
2021/12/31 04:22:53;;;;;;;;;;;-0.70;99.90;;;;;;5070806;28;19916;-73
2021/12/31 04:25:18;;;;;;;;;;;-0.70;99.90;;;;;;5070417;28;19951;-74
2021/12/31 04:27:44;;;;;;;;;;;-0.70;99.90;;;;;;5070778;28;19921;-74
2021/12/31 04:30:10;;;;;;;;;;;-0.70;99.90;;;;;;5057842;28;19909;-74
2021/12/31 04:32:36;;;;;;;;;;;-0.70;99.90;;;;;;5032557;28;20284;-74
2021/12/31 04:35:01;;;;;;;;;;;-0.70;99.90;;;;;;5042700;28;19909;-75
2021/12/31 04:37:27;;;;;;;;;;;-0.60;99.90;;;;;;5070054;28;19966;-73
2021/12/31 04:39:53;;;;;;;;;;;-0.60;99.90;;;;;;5069820;28;19915;-74
2021/12/31 04:42:19;;;;;;;;;;;-0.60;99.90;;;;;;5070428;28;20387;-74
2021/12/31 04:44:45;;;;;;;;;;;-0.60;99.90;;;;;;5070217;28;19904;-74
2021/12/31 04:47:10;;;;;;;;;;;-0.60;99.90;;;;;;5070550;28;19916;-74
2021/12/31 04:49:36;;;;;;;;;;;-0.50;99.90;;;;;;5069680;28;20007;-73
2021/12/31 04:52:01;;;;;;;;;;;-0.50;99.90;;;;;;5070230;28;19924;-74
2021/12/31 04:54:27;;;;;;;;;;;-0.50;99.90;;;;;;5070042;28;19912;-74
2021/12/31 04:56:54;;;;;;;;;;;-0.50;99.90;;;;;;5070350;28;19934;-73
2021/12/31 04:59:20;;;;;;;;;;;-0.50;99.90;;;;;;5070002;28;20378;-74
2021/12/31 05:01:47;;;;;;;;;;;-0.50;99.90;;;;;;5051870;28;19958;-74
2021/12/31 05:04:14;;;;;;;;;;;-0.50;99.90;;;;;;5070049;28;20343;-74
2021/12/31 05:06:40;;;;;;;;;;;-0.50;99.90;;;;;;5070203;28;20378;-74
2021/12/31 05:09:05;;;;;;;;;;;-0.50;99.90;;;;;;5051098;28;19904;-75
2021/12/31 05:11:32;;;;;;;;;;;-0.50;99.90;;;;;;5052046;28;20302;-75
2021/12/31 05:13:57;;;;;;;;;;;-0.50;99.90;;;;;;5070124;28;20412;-75
2021/12/31 05:16:23;;;;;;;;;;;-0.50;99.90;;;;;;5051877;28;19908;-74
2021/12/31 05:18:48;;;;;;;;;;;-0.50;99.90;;;;;;5069600;28;19912;-75
2021/12/31 05:21:14;;;;;;;;;;;-0.40;99.90;;;;;;5069491;28;20356;-73
2021/12/31 05:23:39;;;;;;;;;;;-0.40;99.90;;;;;;5051935;28;20327;-74
2021/12/31 05:26:05;;;;;;;;;;;-0.40;99.90;;;;;;5069514;28;19962;-74
2021/12/31 05:28:32;;;;;;;;;;;-0.30;99.90;;;;;;5051247;28;19939;-74
2021/12/31 05:30:58;;;;;;;;;;;-0.30;99.90;;;;;;5051016;28;19915;-74
2021/12/31 05:33:24;;;;;;;;;;;-0.30;99.90;;;;;;5050197;28;20604;-74
2021/12/31 05:35:49;;;;;;;;;;;-0.20;99.90;;;;;;5067568;28;19944;-74
2021/12/31 05:38:15;;;;;;;;;;;-0.20;99.90;;;;;;5069298;28;19916;-75
2021/12/31 05:40:40;;;;;;;;;;;-0.20;99.90;;;;;;5051346;28;19912;-73
2021/12/31 05:43:06;;;;;;;;;;;-0.20;99.90;;;;;;5051813;28;19912;-73
2021/12/31 05:45:31;;;;;;;;;;;-0.10;99.90;;;;;;5051159;28;19905;-74
2021/12/31 05:47:57;;;;;;;;;;;-0.10;99.90;;;;;;5069345;28;19917;-74
2021/12/31 05:50:29;;;;;;;;;;;-0.10;99.90;;;;;;5069415;28;20034;-74
2021/12/31 05:52:55;;;;;;;;;;;0.00;99.90;;;;;;5069611;28;19913;-74
2021/12/31 05:55:21;;;;;;;;;;;0.00;99.90;;;;;;5069249;28;20330;-75
2021/12/31 05:57:47;;;;;;;;;;;0.00;99.90;;;;;;5069915;28;19923;-73
2021/12/31 06:00:12;;;;;;;;;;;0.00;99.90;;;;;;5050849;28;19908;-74
2021/12/31 06:02:38;;;;;;;;;;;-0.10;99.90;;;;;;5051530;28;19970;-74
2021/12/31 06:05:04;;;;;;;;;;;0.00;99.90;;;;;;5069574;28;19904;-74
2021/12/31 06:07:29;;;;;;;;;;;0.00;99.90;;;;;;5069633;28;20244;-74
2021/12/31 06:09:55;;;;;;;;;;;0.00;99.90;;;;;;5068992;28;20284;-74
2021/12/31 06:12:23;;;;;;;;;;;0.00;99.90;;;;;;5051428;28;20061;-74
2021/12/31 06:14:49;;;;;;;;;;;0.00;99.90;;;;;;5050966;28;19948;-74
2021/12/31 06:17:17;;;;;;;;;;;0.00;99.90;;;;;;5070169;28;19919;-74
2021/12/31 06:19:42;;;;;;;;;;;0.00;99.90;;;;;;5072360;28;19904;-74
2021/12/31 06:22:08;;;;;;;;;;;-1.60;99.90;;;;;;5055121;28;19912;-74
2021/12/31 06:24:33;;;;;;;;;;;0.00;99.90;;;;;;5072795;28;19910;-74
2021/12/31 06:26:59;;;;;;;;;;;0.00;99.90;;;;;;5055034;28;19920;-74
2021/12/31 06:29:25;;;;;;;;;;;0.00;99.90;;;;;;5072133;28;19912;-74
2021/12/31 06:31:50;;;;;;;;;;;0.00;99.90;;;;;;5072832;28;20348;-74
2021/12/31 06:34:16;;;;;;;;;;;0.10;99.90;;;;;;5072558;28;20425;-74
2021/12/31 06:36:41;;;;;;;;;;;0.00;99.90;;;;;;5054595;28;19927;-74
2021/12/31 06:39:08;;;;;;;;;;;0.10;99.90;;;;;;5071897;28;19940;-74
2021/12/31 06:41:33;;;;;;;;;;;0.10;99.90;;;;;;5072683;28;20001;-75
2021/12/31 06:43:59;;;;;;;;;;;0.00;99.90;;;;;;5072440;28;20338;-75
2021/12/31 06:46:24;;;;;;;;;;;0.00;99.90;;;;;;5072456;28;19905;-75
2021/12/31 06:48:51;;;;;;;;;;;0.00;99.90;;;;;;5072057;28;19984;-75
2021/12/31 06:51:17;;;;;;;;;;;0.00;99.90;;;;;;5072983;28;19923;-74
2021/12/31 06:53:42;;;;;;;;;;;-0.10;99.90;;;;;;5072851;28;19940;-73
2021/12/31 06:56:08;;;;;;;;;;;-0.10;99.90;;;;;;5072231;28;19971;-74
2021/12/31 06:58:34;;;;;;;;;;;0.00;99.90;;;;;;5054407;28;19939;-74
2021/12/31 07:00:59;;;;;;;;;;;-0.10;99.90;;;;;;5054355;28;20011;-74
2021/12/31 07:03:25;;;;;;;;;;;0.00;99.90;;;;;;5072269;28;19943;-73
2021/12/31 07:05:50;;;;;;;;;;;0.00;99.90;;;;;;5054577;28;19912;-73
2021/12/31 07:08:16;;;;;;;;;;;0.00;99.90;;;;;;5033985;28;19917;-74
2021/12/31 07:10:42;;;;;;;;;;;0.00;99.90;;;;;;5068723;28;19904;-74
2021/12/31 07:13:11;;;;;;;;;;;0.10;99.90;;;;;;5071980;28;19947;-74
2021/12/31 07:15:37;;;;;;;;;;;0.10;99.90;;;;;;5053952;28;19958;-74
2021/12/31 07:18:03;;;;;;;;;;;0.10;99.90;;;;;;5072025;28;19919;-73
2021/12/31 07:20:29;;;;;;;;;;;0.20;99.90;;;;;;5057040;28;19909;-73
2021/12/31 07:22:54;;;;;;;;;;;0.20;99.90;;;;;;5034268;28;20288;-74
2021/12/31 07:25:20;;;;;;;;;;;0.20;99.90;;;;;;5064676;28;19908;-74
2021/12/31 07:27:50;;;;;;;;;;;0.30;99.90;;;;;;5071836;28;19934;-74
2021/12/31 07:30:16;;;;;;;;;;;0.30;99.90;;;;;;5069784;28;19969;-73
2021/12/31 07:32:42;;;;;;;;;;;0.30;99.90;;;;;;5054216;28;19913;-74
2021/12/31 07:35:08;;;;;;;;;;;0.30;99.90;;;;;;5053174;28;19919;-74
2021/12/31 07:37:33;;;;;;;;;;;0.40;99.90;;;;;;5071530;28;20287;-73
2021/12/31 07:40:04;;;;;;;;;;;0.40;99.90;;;;;;5070856;28;19909;-74
2021/12/31 07:42:30;;;;;;;;;;;0.40;99.90;;;;;;5053389;28;19930;-75
2021/12/31 07:44:56;;;;;;;;;;;0.40;99.90;;;;;;5043461;28;20276;-74
2021/12/31 07:47:21;;;;;;;;;;;0.40;99.90;;;;;;5051502;28;19909;-74
2021/12/31 07:49:47;;;;;;;;;;;0.50;99.90;;;;;;5059576;28;19904;-72
2021/12/31 07:52:12;;;;;;;;;;;0.50;99.90;;;;;;5071820;28;20003;-74
2021/12/31 07:54:38;;;;;;;;;;;0.60;99.90;;;;;;5052856;28;19935;-73
2021/12/31 07:57:04;;;;;;;;;;;0.50;99.90;;;;;;5071236;28;19912;-73
2021/12/31 07:59:29;;;;;;;;;;;0.50;99.90;;;;;;5070575;28;19908;-73
2021/12/31 08:01:55;;;;;;;;;;;0.60;99.90;;;;;;5052463;28;19912;-74
2021/12/31 08:04:20;;;;;;;;;;;0.70;99.90;;;;;;5070740;28;19916;-74
2021/12/31 08:06:46;;;;;;;;;;;0.70;99.90;;;;;;5071160;28;19912;-74
2021/12/31 08:09:11;;;;;;;;;;;0.70;99.90;;;;;;5070095;28;20320;-74
2021/12/31 08:11:37;;;;;;;;;;;0.70;99.90;;;;;;5070617;28;19912;-74
2021/12/31 08:14:03;;;;;;;;;;;0.80;99.90;;;;;;5069815;28;20363;-74
2021/12/31 08:16:29;;;;;;;;;;;0.80;99.90;;;;;;5052197;28;19913;-73
2021/12/31 08:18:55;;;;;;;;;;;0.90;99.90;;;;;;5068380;28;19904;-74
2021/12/31 08:21:20;;;;;;;;;;;0.90;99.90;;;;;;5050511;28;19912;-74
2021/12/31 08:23:46;;;;;;;;;;;0.90;99.90;;;;;;5050624;28;19915;-74
2021/12/31 08:26:11;;;;;;;;;;;0.90;99.90;;;;;;5052538;28;20360;-74
2021/12/31 08:28:37;;;;;;;;;;;1.00;99.90;;;;;;5070595;28;19912;-75
2021/12/31 08:31:03;;;;;;;;;;;1.00;99.90;;;;;;5052249;28;19994;-74
2021/12/31 08:33:28;;;;;;;;;;;1.10;99.90;;;;;;5070663;28;19920;-74
2021/12/31 08:35:55;;;;;;;;;;;1.10;99.90;;;;;;5052324;28;19905;-74
2021/12/31 08:38:21;;;;;;;;;;;1.20;99.90;;;;;;5052588;28;19958;-73
2021/12/31 08:40:46;;;;;;;;;;;1.20;99.90;;;;;;5069545;28;19912;-74
2021/12/31 08:43:12;;;;;;;;;;;1.20;99.90;;;;;;5070647;28;19916;-73
2021/12/31 08:45:37;;;;;;;;;;;1.20;99.90;;;;;;5070441;28;19909;-74
2021/12/31 08:48:03;;;;;;;;;;;1.20;99.90;;;;;;5070609;28;19916;-74
2021/12/31 08:50:29;;;;;;;;;;;1.20;99.90;;;;;;5051165;28;19998;-74
2021/12/31 08:52:55;;;;;;;;;;;1.20;99.90;;;;;;5052188;28;19912;-74
2021/12/31 08:55:21;;;;;;;;;;;1.20;99.90;;;;;;5070270;28;19908;-74
2021/12/31 08:57:47;;;;;;;;;;;1.20;99.90;;;;;;5070365;28;20174;-74
2021/12/31 09:00:13;;;;;;;;;;;1.20;99.90;;;;;;5057077;28;19904;-74
2021/12/31 09:02:39;;;;;;;;;;;1.20;99.90;;;;;;5049514;28;20383;-73
2021/12/31 09:05:06;;;;;;;;;;;1.20;99.90;;;;;;5042889;28;19911;-73
2021/12/31 09:07:31;;;;;;;;;;;1.30;99.90;;;;;;5051976;28;20317;-74
2021/12/31 09:09:57;;;;;;;;;;;1.30;99.90;;;;;;5059277;28;19905;-74
2021/12/31 09:12:22;;;;;;;;;;;1.30;99.90;;;;;;5049951;28;20394;-74
2021/12/31 09:14:48;;;;;;;;;;;1.30;99.90;;;;;;5040637;28;19913;-74
2021/12/31 09:17:13;;;;;;;;;;;1.40;99.90;;;;;;5070057;28;19938;-74
2021/12/31 09:19:39;;;;;;;;;;;1.40;99.90;;;;;;5069200;28;20275;-74
2021/12/31 09:22:05;;;;;;;;;;;1.40;99.90;;;;;;5069594;28;19938;-74
2021/12/31 09:24:31;;;;;;;;;;;1.40;99.90;;;;;;5051641;28;19912;-74
2021/12/31 09:26:56;;;;;;;;;;;1.40;99.90;;;;;;5069841;28;19919;-74
2021/12/31 09:29:23;;;;;;;;;;;1.50;99.90;;;;;;5069336;28;19909;-74
2021/12/31 09:31:51;;;;;;;;;;;1.40;99.90;;;;;;5069900;28;19948;-74
2021/12/31 09:34:17;;;;;;;;;;;1.40;99.90;;;;;;5069425;28;20007;-74
2021/12/31 09:36:42;;;;;;;;;;;1.40;99.90;;;;;;5051525;28;19912;-74
2021/12/31 09:39:08;;;;;;;;;;;1.40;99.90;;;;;;5050402;28;19905;-73
2021/12/31 09:41:34;;;;;;;;;;;1.40;99.90;;;;;;5069154;28;19920;-75
2021/12/31 09:44:00;;;;;;;;;;;1.40;99.90;;;;;;5069458;28;19920;-75
2021/12/31 09:46:25;;;;;;;;;;;1.50;99.90;;;;;;5051702;28;19908;-74
2021/12/31 09:48:51;;;;;;;;;;;1.40;99.90;;;;;;5069092;28;19927;-74
2021/12/31 09:51:17;;;;;;;;;;;1.50;99.90;;;;;;5051169;28;19912;-75
2021/12/31 09:53:43;;;;;;;;;;;1.50;99.90;;;;;;5072685;28;19916;-74
2021/12/31 09:56:09;;;;;;;;;;;1.50;99.90;;;;;;5072661;28;19909;-74
2021/12/31 09:58:37;;;;;;;;;;;1.60;99.90;;;;;;5073171;28;19912;-74
2021/12/31 10:01:03;;;;;;;;;;;1.60;99.90;;;;;;5073600;28;19912;-74
2021/12/31 10:03:31;;;;;;;;;;;1.60;99.90;;;;;;5055642;28;19908;-74
2021/12/31 10:06:08;;;;;;;;;;;1.70;99.90;;;;;;5055042;28;20161;-74
2021/12/31 10:08:42;;;;;;;;;;;1.70;99.90;;;;;;5073090;28;19912;-74
2021/12/31 10:11:08;;;;;;;;;;;1.80;99.90;;;;;;5054595;28;19927;-73
2021/12/31 10:13:38;;;;;;;;;;;1.80;99.90;;;;;;5054914;28;19908;-73
2021/12/31 10:16:04;;;;;;;;;;;1.80;99.90;;;;;;5072673;28;20233;-74
2021/12/31 10:18:29;;;;;;;;;;;1.80;99.90;;;;;;5068766;28;19912;-74
2021/12/31 10:20:55;;;;;;;;;;;1.90;99.90;;;;;;5055400;28;19908;-74
2021/12/31 10:23:20;;;;;;;;;;;1.90;99.90;;;;;;5056875;28;19936;-74
2021/12/31 10:25:46;;;;;;;;;;;1.90;99.90;;;;;;5055103;28;19919;-75
2021/12/31 10:28:13;;;;;;;;;;;1.90;99.90;;;;;;5053780;28;19935;-74
2021/12/31 10:30:39;;;;;;;;;;;2.00;99.90;;;;;;5073225;28;19908;-74
2021/12/31 10:33:05;;;;;;;;;;;2.10;99.90;;;;;;5054043;28;19916;-74
2021/12/31 10:35:44;;;;;;;;;;;2.10;99.90;;;;;;5054792;28;20275;-74
2021/12/31 10:38:13;;;;;;;;;;;2.10;99.90;;;;;;5060214;28;20304;-74
2021/12/31 10:40:43;;;;;;;;;;;2.10;99.90;;;;;;5034272;28;19925;-74
2021/12/31 10:43:22;;;;;;;;;;;2.10;99.90;;;;;;5064133;28;19924;-74
2021/12/31 10:45:54;;;;;;;;;;;2.20;99.90;;;;;;5054567;28;20486;-74
2021/12/31 10:48:20;;;;;;;;;;;2.20;99.90;;;;;;5071605;28;20008;-74
2021/12/31 10:50:52;;;;;;;;;;;2.20;99.90;;;;;;5073117;28;19950;-74
2021/12/31 10:53:33;;;;;;;;;;;2.20;99.90;;;;;;5072059;28;20015;-74
2021/12/31 10:56:12;;;;;;;;;;;2.30;99.90;;;;;;5054888;28;19912;-74
2021/12/31 10:58:39;;;;;;;;;;;2.30;99.90;;;;;;5071948;28;20408;-74
2021/12/31 11:01:05;;;;;;;;;;;2.20;99.90;;;;;;5072714;28;19908;-74
2021/12/31 11:03:32;;;;;;;;;;;2.20;99.90;;;;;;5053789;28;19920;-73
2021/12/31 11:05:57;;;;;;;;;;;2.30;99.90;;;;;;5072569;28;19908;-74
2021/12/31 11:08:23;;;;;;;;;;;2.30;99.90;;;;;;5071228;28;20188;-74
2021/12/31 11:10:50;;;;;;;;;;;2.30;99.90;;;;;;5072671;28;19909;-74
2021/12/31 11:13:18;;;;;;;;;;;2.30;99.90;;;;;;5051801;28;19965;-73
2021/12/31 11:15:45;;;;;;;;;;;2.30;99.90;;;;;;5072341;28;20319;-74
2021/12/31 11:18:18;;;;;;;;;;;2.30;99.90;;;;;;5041601;28;19923;-74
2021/12/31 11:20:45;;;;;;;;;;;2.30;99.90;;;;;;5052422;28;20276;-74
2021/12/31 11:23:10;;;;;;;;;;;2.40;99.90;;;;;;5063875;28;20420;-74
2021/12/31 11:25:36;;;;;;;;;;;2.40;99.90;;;;;;5072301;28;19944;-73
2021/12/31 11:28:02;;;;;;;;;;;2.40;99.90;;;;;;5053820;28;19923;-74
2021/12/31 11:30:32;;;;;;;;;;;2.40;99.90;;;;;;5072017;28;19947;-74
2021/12/31 11:32:57;;;;;;;;;;;2.40;99.90;;;;;;5071556;28;20375;-73
2021/12/31 11:35:29;;;;;;;;;;;2.40;99.90;;;;;;5053475;28;19915;-73
2021/12/31 11:37:55;;;;;;;;;;;2.50;99.90;;;;;;5053261;28;19934;-73
2021/12/31 11:40:31;;;;;;;;;;;2.50;99.90;;;;;;5071039;28;20023;-73
2021/12/31 11:43:15;;;;;;;;;;;2.50;99.90;;;;;;5053110;28;20318;-74
2021/12/31 11:45:41;;;;;;;;;;;2.50;99.90;;;;;;5053395;28;19912;-74
2021/12/31 11:48:26;;;;;;;;;;;2.50;99.90;;;;;;5053285;28;19908;-74
2021/12/31 11:51:04;;;;;;;;;;;2.60;99.90;;;;;;5072093;28;20003;-74
2021/12/31 11:53:30;;;;;;;;;;;2.60;99.90;;;;;;5070991;28;20022;-74
2021/12/31 11:55:55;;;;;;;;;;;2.60;99.90;;;;;;5053534;28;20061;-74
2021/12/31 11:58:40;;;;;;;;;;;2.70;99.90;;;;;;5052588;28;20073;-74
2021/12/31 12:01:25;;;;;;;;;;;2.80;99.90;;;;;;5070917;28;19919;-74
2021/12/31 12:04:11;;;;;;;;;;;2.80;99.90;;;;;;5052239;28;19966;-74
2021/12/31 12:06:53;;;;;;;;;;;2.80;99.90;;;;;;5070924;28;19968;-73
2021/12/31 12:09:19;;;;;;;;;;;2.80;99.90;;;;;;5052469;28;19915;-73
2021/12/31 12:12:04;;;;;;;;;;;2.90;99.90;;;;;;5070352;28;20288;-73
2021/12/31 12:14:31;;;;;;;;;;;2.90;99.90;;;;;;5032347;28;19908;-74
2021/12/31 12:16:59;;;;;;;;;;;2.90;99.90;;;;;;5034350;28;19917;-75
2021/12/31 12:19:43;;;;;;;;;;;2.90;99.90;;;;;;5052672;28;19950;-73
2021/12/31 12:22:09;;;;;;;;;;;2.90;99.90;;;;;;5052600;28;19921;-74
2021/12/31 12:24:35;;;;;;;;;;;2.90;99.90;;;;;;5070517;28;20260;-74
2021/12/31 12:27:04;;;;;;;;;;;2.90;99.90;;;;;;5070916;28;19952;-74
2021/12/31 12:29:29;;;;;;;;;;;2.90;99.90;;;;;;5052801;28;19911;-73
2021/12/31 12:32:07;;;;;;;;;;;2.90;99.90;;;;;;5070661;28;19912;-73
2021/12/31 12:34:33;;;;;;;;;;;2.90;99.90;;;;;;5070551;28;20423;-73
2021/12/31 12:36:58;;;;;;;;;;;3.00;99.90;;;;;;5070324;28;19922;-74
2021/12/31 12:39:24;;;;;;;;;;;3.00;99.90;;;;;;5069849;28;20330;-73
2021/12/31 12:41:50;;;;;;;;;;;3.00;99.90;;;;;;5069671;28;20464;-73
2021/12/31 12:44:16;;;;;;;;;;;3.00;99.90;;;;;;5070321;28;19926;-74
2021/12/31 12:46:54;;;;;;;;;;;3.00;99.90;;;;;;5070426;28;19908;-75
2021/12/31 12:49:20;;;;;;;;;;;3.00;99.90;;;;;;5052148;28;19915;-73
2021/12/31 12:51:48;;;;;;;;;;;3.00;99.90;;;;;;5070383;28;19913;-74
2021/12/31 12:54:18;;;;;;;;;;;2.90;99.90;;;;;;5070202;28;19923;-74
2021/12/31 12:56:43;;;;;;;;;;;3.00;99.90;;;;;;5070649;28;20280;-74
2021/12/31 12:59:10;;;;;;;;;;;2.90;99.90;;;;;;5069762;28;19909;-74
2021/12/31 13:01:39;;;;;;;;;;;2.90;99.90;;;;;;5051815;28;19916;-74
2021/12/31 13:04:06;;;;;;;;;;;2.90;99.90;;;;;;5069962;28;19912;-73
2021/12/31 13:06:32;;;;;;;;;;;2.90;99.90;;;;;;5070148;28;19915;-73
2021/12/31 13:09:08;;;;;;;;;;;2.90;99.90;;;;;;5069593;28;19904;-73
2021/12/31 13:11:35;;;;;;;;;;;2.90;99.90;;;;;;5070370;28;19908;-73
2021/12/31 13:14:01;;;;;;;;;;;2.90;99.90;;;;;;5070049;28;20019;-73
2021/12/31 13:16:27;;;;;;;;;;;3.00;99.90;;;;;;5070583;28;20498;-73
2021/12/31 13:18:57;;;;;;;;;;;3.00;99.90;;;;;;5069624;28;20038;-73
2021/12/31 13:21:22;;;;;;;;;;;3.00;99.90;;;;;;5052175;28;20321;-73
2021/12/31 13:23:52;;;;;;;;;;;3.00;99.90;;;;;;5051764;28;19904;-73
2021/12/31 13:26:23;;;;;;;;;;;3.00;99.90;;;;;;5051926;28;19915;-74
2021/12/31 13:28:49;;;;;;;;;;;3.00;99.90;;;;;;5054852;28;20025;-74
2021/12/31 13:31:15;;;;;;;;;;;3.00;99.90;;;;;;5074001;28;20000;-74
2021/12/31 13:33:45;;;;;;;;;;;3.00;99.90;;;;;;5073976;28;20374;-74
2021/12/31 13:36:12;;;;;;;;;;;3.10;99.90;;;;;;5055709;28;20368;-74
2021/12/31 13:38:57;;;;;;;;;;;3.00;99.90;;;;;;5073001;28;19995;-74
2021/12/31 13:41:23;;;;;;;;;;;3.00;99.90;;;;;;5073749;28;19963;-73
2021/12/31 13:43:56;;;;;;;;;;;3.00;99.90;;;;;;5073638;28;20348;-73
2021/12/31 13:46:33;;;;;;;;;;;3.00;99.90;;;;;;5055465;28;20425;-74
2021/12/31 13:49:02;;;;;;;;;;;3.00;99.90;;;;;;5055222;28;20413;-74
2021/12/31 13:51:28;;;;;;;;;;;3.00;99.90;;;;;;5055887;28;19952;-73
2021/12/31 13:53:53;;;;;;;;;;;3.00;99.90;;;;;;5055453;28;19908;-74
2021/12/31 13:56:29;;;;;;;;;;;3.00;99.90;;;;;;5074045;28;19962;-73
2021/12/31 13:58:55;;;;;;;;;;;3.00;99.90;;;;;;5073214;28;19991;-73
2021/12/31 14:01:22;;;;;;;;;;;3.00;99.90;;;;;;5073694;28;19943;-73
2021/12/31 14:04:20;;;;;;;;;;;3.00;99.90;;;;;;5073273;28;19916;-74
2021/12/31 14:06:45;;;;;;;;;;;3.10;99.90;;;;;;5050204;28;19915;-74
2021/12/31 14:09:11;;;;;;;;;;;3.00;99.90;;;;;;5073351;28;19909;-74
2021/12/31 14:11:37;;;;;;;;;;;3.00;99.90;;;;;;5073810;28;19909;-74
2021/12/31 14:14:02;;;;;;;;;;;3.00;99.90;;;;;;5073045;28;20015;-74
2021/12/31 14:16:28;;;;;;;;;;;3.00;99.90;;;;;;5073568;28;19912;-75
2021/12/31 14:18:54;;;;;;;;;;;3.00;99.90;;;;;;5072719;28;19904;-74
2021/12/31 14:21:19;;;;;;;;;;;3.10;99.90;;;;;;5073275;28;20368;-73
2021/12/31 14:23:46;;;;;;;;;;;3.10;99.90;;;;;;5072797;28;19958;-73
2021/12/31 14:26:11;;;;;;;;;;;3.10;99.90;;;;;;5055065;28;19944;-73
2021/12/31 14:28:38;;;;;;;;;;;3.10;99.90;;;;;;5072918;28;19905;-74